Birmingham, Michigan
Current Conditions -  °F | °C
As of 3:35 PM on Tuesday 25 Nov 2014 (Local Time) from KVLL Reporting Station
Overcast Overcast  
Wind Chill: 27°   Ceiling: 3100
Heat Index: 33°   Visibility: 10mi
Dew Point: 23°   Wind: 7mph
Humidity: 66%   Direction: 250°WSW
Pressure: 30.08"   Gusts: NA
Location:  42.55°N, 83.21°W
Report Text: KVLL 252035Z AUTO 25006KT 10SM OVC031 01/M05 A3008 RMK AO2 T00071051
Loading
Personal Weather Stations






























Interactive Weather Map New forecast layout! Learn more

10-Day Weather Forecast

Advertisements
Track Severe Weather on mobile